Time;durP1;ratioP1;P1;durP2;ratioP2;P2;SDS_P1;SDS_P2;PMS_P1;PMS_P2;Temp;Humidity;BMP_temperature;BMP_pressure;BME280_temperature;BME280_humidity;BME280_pressure;Samples;Min_cycle;Max_cycle;Signal;HPM_P1;HPM_P2
2022/03/21 00:02:25;;;;;;;18.27;14.77;;;1.00;90.40;;;;;;5018271;28;20116;-56
2022/03/21 00:04:51;;;;;;;22.13;14.40;;;1.00;91.20;;;;;;5017828;28;20053;-57
2022/03/21 00:07:18;;;;;;;18.77;14.30;;;1.00;91.40;;;;;;5022094;28;20041;-57
2022/03/21 00:09:44;;;;;;;19.38;13.70;;;1.00;92.00;;;;;;5016109;28;20489;-57
2022/03/21 00:12:13;;;;;;;26.80;15.80;;;0.90;92.10;;;;;;5020277;28;20029;-57
2022/03/21 00:14:42;;;;;;;26.63;16.15;;;0.90;92.60;;;;;;5026627;28;20040;-56
2022/03/21 00:17:09;;;;;;;22.20;14.30;;;0.80;93.00;;;;;;5020166;28;20033;-57
2022/03/21 00:19:34;;;;;;;19.63;14.63;;;0.70;93.10;;;;;;5016825;28;20053;-57
2022/03/21 00:22:01;;;;;;;19.67;15.05;;;0.60;93.10;;;;;;5019727;28;20532;-56
2022/03/21 00:24:26;;;;;;;23.35;16.90;;;0.60;93.70;;;;;;5015317;28;20384;-57
2022/03/21 00:26:52;;;;;;;25.00;15.85;;;0.50;94.40;;;;;;5022331;28;20029;-57
2022/03/21 00:29:19;;;;;;;21.15;14.30;;;0.50;94.50;;;;;;5022231;28;20022;-57
2022/03/21 00:31:44;;;;;;;25.67;14.70;;;0.50;95.10;;;;;;5019110;28;20456;-56
2022/03/21 00:34:10;;;;;;;24.50;13.73;;;0.40;95.10;;;;;;5021119;28;20062;-55
2022/03/21 00:36:35;;;;;;;23.05;15.02;;;0.40;95.70;;;;;;5020700;28;20034;-57
2022/03/21 00:39:01;;;;;;;17.50;14.55;;;0.40;96.40;;;;;;5021973;28;20363;-58
2022/03/21 00:41:28;;;;;;;19.20;13.07;;;0.30;97.00;;;;;;5019064;28;20497;-59
2022/03/21 00:43:54;;;;;;;21.95;13.98;;;0.20;97.50;;;;;;5018553;28;20026;-57
2022/03/21 00:46:20;;;;;;;21.17;14.10;;;0.20;98.90;;;;;;5015834;28;20022;-56
2022/03/21 00:48:45;;;;;;;19.70;14.50;;;0.10;99.90;;;;;;5018354;28;20025;-58
2022/03/21 00:51:11;;;;;;;18.70;13.38;;;0.00;99.90;;;;;;5016909;28;20053;-62
2022/03/21 00:53:37;;;;;;;19.98;14.00;;;0.00;99.90;;;;;;5017495;28;20115;-57
2022/03/21 00:56:03;;;;;;;17.27;13.70;;;-0.10;99.90;;;;;;5020874;28;20029;-57
2022/03/21 00:58:28;;;;;;;23.88;14.02;;;-0.20;99.90;;;;;;5034861;28;20029;-56
2022/03/21 01:00:54;;;;;;;20.55;13.90;;;-0.20;99.90;;;;;;5021678;28;20061;-57
2022/03/21 01:03:19;;;;;;;32.10;18.42;;;-0.30;99.90;;;;;;5015863;28;20097;-58
2022/03/21 01:05:45;;;;;;;20.13;14.63;;;-0.30;99.90;;;;;;5016102;28;20034;-56
2022/03/21 01:08:11;;;;;;;24.80;14.70;;;-0.40;99.90;;;;;;5021985;28;20049;-56
2022/03/21 01:10:37;;;;;;;18.85;15.32;;;-0.40;99.90;;;;;;5018891;28;20403;-57
2022/03/21 01:13:03;;;;;;;21.58;15.48;;;-0.40;99.90;;;;;;5019046;28;20042;-57
2022/03/21 01:15:29;;;;;;;24.30;15.85;;;-0.50;99.90;;;;;;5017729;28;20164;-55
2022/03/21 01:17:57;;;;;;;22.80;15.05;;;-0.40;99.90;;;;;;5016557;28;20022;-57
2022/03/21 01:20:23;;;;;;;23.55;16.98;;;-0.50;99.90;;;;;;5016849;28;20424;-56
2022/03/21 01:22:50;;;;;;;23.30;15.57;;;-0.40;99.90;;;;;;5018448;28;20033;-57
2022/03/21 01:25:15;;;;;;;21.75;15.20;;;-0.50;99.90;;;;;;5016732;28;20033;-57
2022/03/21 01:27:42;;;;;;;20.77;15.27;;;-0.50;99.90;;;;;;5019311;28;20029;-58
2022/03/21 01:30:11;;;;;;;19.90;14.82;;;-0.40;99.90;;;;;;5019315;28;20081;-56
2022/03/21 01:32:38;;;;;;;19.48;14.80;;;-0.40;99.90;;;;;;5028474;28;20022;-56
2022/03/21 01:35:05;;;;;;;18.77;13.48;;;-0.40;99.90;;;;;;5021418;28;20092;-55
2022/03/21 01:37:31;;;;;;;30.50;16.27;;;-0.50;99.90;;;;;;5017146;28;20066;-59
2022/03/21 01:39:57;;;;;;;18.88;14.10;;;-0.50;99.90;;;;;;5018844;28;20076;-57
2022/03/21 01:42:22;;;;;;;23.25;13.80;;;-0.60;99.90;;;;;;5017088;28;20114;-56
2022/03/21 01:44:52;;;;;;;19.73;14.82;;;-0.70;99.90;;;;;;5019718;28;20017;-58
2022/03/21 01:47:18;;;;;;;23.70;15.63;;;-0.80;99.90;;;;;;5019633;28;20029;-57
2022/03/21 01:49:43;;;;;;;26.08;15.43;;;-0.80;99.90;;;;;;5017202;28;20027;-56
2022/03/21 01:52:09;;;;;;;29.77;16.80;;;-0.90;99.90;;;;;;5015630;28;20186;-58
2022/03/21 01:57:20;;;;;;;25.92;16.13;;;-1.00;99.90;;;;;;5017240;28;20055;-59
2022/03/21 01:59:46;;;;;;;22.88;14.98;;;-1.00;99.90;;;;;;5015883;28;20030;-56
2022/03/21 02:02:12;;;;;;;25.85;15.20;;;-1.10;99.90;;;;;;5019309;28;20026;-57
2022/03/21 02:04:37;;;;;;;25.83;15.38;;;-1.10;99.90;;;;;;5016109;28;20052;-57
2022/03/21 02:07:05;;;;;;;22.52;15.70;;;-1.10;99.90;;;;;;5020019;28;20088;-58
2022/03/21 02:09:31;;;;;;;25.45;15.43;;;-1.00;99.90;;;;;;5016966;28;20600;-58
2022/03/21 02:11:57;;;;;;;19.45;14.50;;;-1.00;99.90;;;;;;5011101;28;20042;-56
2022/03/21 02:14:23;;;;;;;23.25;15.75;;;-0.90;99.90;;;;;;5031169;28;20022;-56
2022/03/21 02:16:48;;;;;;;21.60;14.63;;;-0.90;99.90;;;;;;5016494;28;20033;-56
2022/03/21 02:19:19;;;;;;;20.67;15.35;;;-0.90;99.90;;;;;;5016581;28;20385;-58
2022/03/21 02:22:04;;;;;;;;;;;-0.90;99.90;;;;;;5012220;28;20030;-56
2022/03/21 02:24:44;;;;;;;22.60;15.70;;;-0.90;99.90;;;;;;5018112;28;19917;-55
2022/03/21 02:27:11;;;;;;;27.58;14.82;;;-0.90;99.90;;;;;;5020521;28;20030;-54
2022/03/21 02:29:38;;;;;;;26.10;15.77;;;-0.90;99.90;;;;;;5016145;28;20465;-55
2022/03/21 02:32:06;;;;;;;22.00;14.57;;;-0.90;99.90;;;;;;5015396;28;20041;-54
2022/03/21 02:34:36;;;;;;;20.42;14.20;;;-0.80;99.90;;;;;;5019596;28;20120;-56
2022/03/21 02:37:02;;;;;;;18.90;14.15;;;-0.90;99.90;;;;;;5014812;28;20049;-56
2022/03/21 02:39:29;;;;;;;20.83;15.88;;;-0.90;99.90;;;;;;5015944;28;20112;-56
2022/03/21 02:41:55;;;;;;;25.20;15.85;;;-0.90;99.90;;;;;;5016392;28;20022;-56
2022/03/21 02:44:20;;;;;;;28.13;16.60;;;-1.00;99.90;;;;;;5014449;28;20076;-56
2022/03/21 02:46:46;;;;;;;15.60;13.63;;;-1.00;99.90;;;;;;5020436;28;20034;-56
2022/03/21 02:49:14;;;;;;;18.75;14.23;;;-1.10;99.90;;;;;;5018527;28;20030;-56
2022/03/21 02:51:41;;;;;;;21.92;14.45;;;-1.20;99.90;;;;;;5015154;28;20072;-54
2022/03/21 02:54:07;;;;;;;23.52;15.18;;;-1.40;99.90;;;;;;5016323;28;20401;-55
2022/03/21 02:56:33;;;;;;;21.35;15.27;;;-1.50;99.90;;;;;;5017788;28;20018;-54
2022/03/21 02:58:59;;;;;;;22.25;14.55;;;-1.60;99.90;;;;;;5013984;28;20072;-55
2022/03/21 03:01:26;;;;;;;26.35;15.93;;;-1.70;99.90;;;;;;5014127;28;20034;-54
2022/03/21 03:03:52;;;;;;;27.05;15.68;;;-1.80;99.90;;;;;;5017468;28;20079;-55
2022/03/21 03:06:17;;;;;;;28.83;16.77;;;-1.80;99.90;;;;;;5013381;28;20105;-57
2022/03/21 03:08:44;;;;;;;27.55;17.48;;;-1.80;99.90;;;;;;5018358;28;20116;-56
2022/03/21 03:11:10;;;;;;;26.58;15.40;;;-1.80;99.90;;;;;;5020324;28;20030;-55
2022/03/21 03:13:36;;;;;;;24.50;15.60;;;-1.80;99.90;;;;;;5016460;28;20041;-55
2022/03/21 03:16:02;;;;;;;20.50;15.35;;;-1.80;99.90;;;;;;5015989;28;20030;-56
2022/03/21 03:18:28;;;;;;;24.98;16.15;;;-1.80;99.90;;;;;;5017026;28;20022;-55
2022/03/21 03:20:58;;;;;;;24.50;15.52;;;-1.80;99.90;;;;;;5020012;28;20106;-54
2022/03/21 03:23:25;;;;;;;25.10;15.65;;;-1.80;99.90;;;;;;5014517;28;20037;-56
2022/03/21 03:25:58;;;;;;;21.85;15.00;;;-1.80;99.90;;;;;;5014695;28;20033;-55
2022/03/21 03:28:25;;;;;;;29.35;15.65;;;-1.70;99.90;;;;;;5019028;28;20022;-55
2022/03/21 03:30:51;;;;;;;26.95;15.10;;;-1.70;99.90;;;;;;5040777;28;20491;-55
2022/03/21 03:33:17;;;;;;;21.40;14.52;;;-1.70;99.90;;;;;;5019873;28;20026;-55
2022/03/21 03:35:43;;;;;;;22.13;14.88;;;-1.70;99.90;;;;;;5021492;28;20377;-57
2022/03/21 03:38:09;;;;;;;22.33;14.57;;;-1.70;99.90;;;;;;5021798;28;20026;-56
2022/03/21 03:40:34;;;;;;;27.33;15.63;;;-1.80;99.90;;;;;;5026557;28;20036;-55
2022/03/21 03:43:00;;;;;;;27.30;15.90;;;-1.80;99.90;;;;;;5018354;28;20037;-54
2022/03/21 03:45:26;;;;;;;26.33;15.52;;;-1.90;99.90;;;;;;5018895;28;20030;-57
2022/03/21 03:47:52;;;;;;;24.45;16.10;;;-2.00;99.90;;;;;;5035625;28;20460;-56
2022/03/21 03:50:19;;;;;;;23.30;15.60;;;-2.00;99.90;;;;;;5022328;28;20611;-56
2022/03/21 03:52:46;;;;;;;25.08;16.45;;;-2.00;99.90;;;;;;5019164;28;20046;-56
2022/03/21 03:55:17;;;;;;;24.70;15.25;;;-2.10;99.90;;;;;;5017913;28;20124;-55
2022/03/21 03:57:46;;;;;;;28.88;15.90;;;-2.10;99.90;;;;;;5015103;28;20036;-54
2022/03/21 04:00:14;;;;;;;23.95;16.08;;;-2.10;99.90;;;;;;5017723;28;20028;-56
2022/03/21 04:05:24;;;;;;;23.90;15.88;;;-2.20;99.90;;;;;;5021261;28;20118;-55
2022/03/21 04:07:52;;;;;;;25.02;16.15;;;-2.30;99.90;;;;;;5017458;28;20069;-55
2022/03/21 04:10:20;;;;;;;26.35;15.10;;;-2.30;99.90;;;;;;5017009;28;20035;-54
2022/03/21 04:12:47;;;;;;;28.63;17.25;;;-2.40;99.90;;;;;;5019052;28;20292;-56
2022/03/21 04:15:13;;;;;;;23.60;16.08;;;-2.50;99.90;;;;;;5035054;28;20069;-56
2022/03/21 04:17:39;;;;;;;24.17;17.25;;;-2.50;99.90;;;;;;5021529;28;20040;-55
2022/03/21 04:20:06;;;;;;;29.05;18.50;;;-2.60;99.90;;;;;;5021698;28;20112;-56
2022/03/21 04:22:34;;;;;;;25.80;15.77;;;-2.60;99.90;;;;;;5018260;28;20027;-55
2022/03/21 04:25:00;;;;;;;28.15;16.70;;;-2.70;99.90;;;;;;5018883;28;20026;-55
2022/03/21 04:27:26;;;;;;;26.17;16.60;;;-2.70;99.90;;;;;;5018919;28;20036;-54
2022/03/21 04:29:52;;;;;;;24.70;16.23;;;-2.80;99.90;;;;;;5020668;28;20025;-54
2022/03/21 04:32:17;;;;;;;26.08;16.88;;;-2.80;99.90;;;;;;5020915;28;20030;-55
2022/03/21 04:34:43;;;;;;;24.88;16.35;;;-2.80;99.90;;;;;;5020858;28;20029;-55
2022/03/21 04:37:09;;;;;;;27.58;16.85;;;-2.80;99.90;;;;;;5022831;28;20446;-55
2022/03/21 04:39:34;;;;;;;23.58;16.83;;;-2.90;99.90;;;;;;5015566;28;20072;-55
2022/03/21 04:42:00;;;;;;;26.90;16.63;;;-2.90;99.90;;;;;;5021998;28;20028;-55
2022/03/21 04:44:26;;;;;;;29.90;16.38;;;-2.90;99.90;;;;;;5018545;28;20387;-54
2022/03/21 04:46:52;;;;;;;23.23;16.30;;;-2.90;99.90;;;;;;5014235;28;20037;-54
2022/03/21 04:49:17;;;;;;;27.02;16.85;;;-2.90;99.90;;;;;;5020259;28;20042;-56
2022/03/21 04:51:43;;;;;;;28.00;18.25;;;-3.00;99.90;;;;;;5018549;28;20657;-55
2022/03/21 04:54:09;;;;;;;20.08;14.43;;;-3.00;99.90;;;;;;5019056;28;20030;-55
2022/03/21 04:56:35;;;;;;;22.42;15.63;;;-3.00;99.90;;;;;;5016535;28;20084;-54
2022/03/21 04:59:00;;;;;;;26.83;17.38;;;-3.00;99.90;;;;;;5018288;28;20172;-55
2022/03/21 05:01:26;;;;;;;28.02;16.48;;;-2.90;99.90;;;;;;5014848;28;20050;-55
2022/03/21 05:03:52;;;;;;;26.40;16.85;;;-2.90;99.90;;;;;;5017368;28;20030;-57
2022/03/21 05:06:17;;;;;;;26.48;16.05;;;-2.90;99.90;;;;;;5018476;28;20044;-55
2022/03/21 05:08:43;;;;;;;25.58;15.60;;;-2.80;99.90;;;;;;5017649;28;20013;-55
2022/03/21 05:11:10;;;;;;;26.48;16.05;;;-2.80;99.90;;;;;;5015873;28;20385;-55
2022/03/21 05:13:36;;;;;;;31.48;18.38;;;-2.80;99.90;;;;;;5019499;28;20619;-56
2022/03/21 05:16:05;;;;;;;25.45;16.88;;;-2.80;99.90;;;;;;5019027;28;20038;-55
2022/03/21 05:18:34;;;;;;;24.38;16.67;;;-2.80;99.90;;;;;;5013929;28;20041;-55
2022/03/21 05:21:00;;;;;;;23.98;16.67;;;-2.90;99.90;;;;;;5018914;28;20022;-57
2022/03/21 05:31:38;;;;;;;19.42;15.15;;;-2.90;99.90;;;;;;5016454;28;20033;-56
2022/03/21 05:36:48;;;;;;;31.02;19.80;;;-2.90;99.90;;;;;;5017466;28;20040;-56
2022/03/21 05:39:13;;;;;;;31.92;21.90;;;-2.80;99.90;;;;;;5018731;28;20029;-54
2022/03/21 05:41:39;;;;;;;31.33;21.88;;;-2.70;99.90;;;;;;5019418;28;20432;-55
2022/03/21 05:44:04;;;;;;;31.38;18.35;;;-2.60;99.90;;;;;;5034586;28;20034;-55
2022/03/21 05:46:30;;;;;;;22.25;14.73;;;-2.50;99.90;;;;;;5019711;28;20532;-56
2022/03/21 05:49:02;;;;;;;30.00;16.35;;;-2.40;99.90;;;;;;5018311;28;20034;-54
2022/03/21 05:51:30;;;;;;;22.45;15.00;;;-2.40;99.90;;;;;;5019055;28;20025;-55
2022/03/21 05:54:11;;;;;;;20.58;15.98;;;-2.30;99.90;;;;;;5019868;28;20112;-54
2022/03/21 05:56:39;;;;;;;24.25;16.83;;;-2.20;99.90;;;;;;5019193;28;20389;-55
2022/03/21 06:01:53;;;;;;;18.30;14.07;;;-2.00;99.90;;;;;;5019065;28;20084;-56
2022/03/21 06:04:19;;;;;;;24.35;15.85;;;-1.80;99.90;;;;;;5016244;28;20030;-56
2022/03/21 06:06:45;;;;;;;27.50;14.52;;;-1.70;99.90;;;;;;5020880;28;20018;-56
2022/03/21 06:09:12;;;;;;;23.00;15.25;;;-1.70;99.90;;;;;;5018435;28;20397;-57
2022/03/21 06:11:38;;;;;;;25.85;14.63;;;-1.40;99.90;;;;;;5021208;28;20022;-57
2022/03/21 06:14:05;;;;;;;20.17;13.77;;;-0.90;99.90;;;;;;5016889;28;20037;-56
2022/03/21 06:16:34;;;;;;;18.45;12.85;;;0.10;99.90;;;;;;5018214;28;20025;-56
2022/03/21 06:19:00;;;;;;;15.23;12.65;;;1.10;99.90;;;;;;5017244;28;20121;-56
2022/03/21 06:21:27;;;;;;;14.43;12.02;;;1.90;99.90;;;;;;5014171;28;20097;-57
2022/03/21 06:23:53;;;;;;;16.80;12.25;;;2.60;99.90;;;;;;5014093;28;20026;-55
2022/03/21 06:26:19;;;;;;;15.65;11.70;;;3.30;94.30;;;;;;5017957;28;20551;-57
2022/03/21 06:28:45;;;;;;;15.55;11.52;;;3.90;93.40;;;;;;5016729;28;20065;-55
2022/03/21 06:31:11;;;;;;;13.95;12.35;;;4.60;90.60;;;;;;5016791;28;20462;-55
2022/03/21 06:33:36;;;;;;;16.40;12.48;;;5.40;89.40;;;;;;5016772;28;20700;-55
2022/03/21 06:36:02;;;;;;;14.68;11.95;;;5.90;83.60;;;;;;5033243;28;20724;-56
2022/03/21 06:38:29;;;;;;;12.73;10.60;;;7.00;81.40;;;;;;5017996;28;20040;-56
2022/03/21 06:40:55;;;;;;;14.43;10.40;;;8.30;79.00;;;;;;5016661;28;20531;-55
2022/03/21 06:43:22;;;;;;;14.95;10.85;;;9.10;71.80;;;;;;5013213;28;20117;-56
2022/03/21 06:45:50;;;;;;;12.68;10.30;;;9.90;67.60;;;;;;5017326;28;20033;-56
2022/03/21 06:48:17;;;;;;;13.65;10.48;;;10.40;64.10;;;;;;5016200;28;20037;-56
2022/03/21 06:50:43;;;;;;;13.40;11.02;;;10.70;62.80;;;;;;5016778;28;20025;-57
2022/03/21 06:53:09;;;;;;;11.80;10.63;;;11.10;60.70;;;;;;5037507;28;20030;-57
2022/03/21 06:55:35;;;;;;;13.63;10.88;;;11.80;61.70;;;;;;5018422;28;20022;-57
2022/03/21 06:58:03;;;;;;;11.63;10.63;;;11.70;58.20;;;;;;5014941;28;20362;-58
2022/03/21 07:00:29;;;;;;;12.05;10.38;;;12.10;57.60;;;;;;5012484;28;20478;-56
2022/03/21 07:02:55;;;;;;;11.95;10.82;;;12.80;57.70;;;;;;5017818;28;20035;-56
2022/03/21 07:05:20;;;;;;;11.70;10.70;;;12.70;55.80;;;;;;5016570;28;20030;-56
2022/03/21 07:07:47;;;;;;;12.27;11.07;;;12.30;56.60;;;;;;5017450;28;20081;-56
2022/03/21 07:10:13;;;;;;;14.23;12.80;;;12.60;56.80;;;;;;5019858;28;20037;-57
2022/03/21 07:12:39;;;;;;;12.27;11.07;;;13.20;56.10;;;;;;5013271;28;20432;-57
2022/03/21 07:15:05;;;;;;;11.57;10.65;;;13.20;54.40;;;;;;5017990;28;20354;-56
2022/03/21 07:17:31;;;;;;;12.25;11.15;;;13.70;54.30;;;;;;5016802;28;20025;-57
2022/03/21 07:19:57;;;;;;;13.00;11.70;;;14.10;53.80;;;;;;5016783;28;20095;-57
2022/03/21 07:22:23;;;;;;;11.70;10.70;;;14.20;52.10;;;;;;5014839;28;20133;-56
2022/03/21 07:24:49;;;;;;;13.10;11.13;;;14.70;50.80;;;;;;5011702;28;20038;-57
2022/03/21 07:27:15;;;;;;;11.45;10.45;;;15.20;50.50;;;;;;5014923;28;20030;-58
2022/03/21 07:29:41;;;;;;;12.82;11.63;;;16.10;50.20;;;;;;5016577;28;20029;-57
2022/03/21 07:32:07;;;;;;;11.63;10.38;;;16.20;47.10;;;;;;5015946;28;20038;-57
2022/03/21 07:34:33;;;;;;;11.40;10.40;;;16.00;46.20;;;;;;5012588;28;20037;-56
2022/03/21 07:36:58;;;;;;;12.27;10.93;;;15.80;46.10;;;;;;5014192;28;20072;-57
2022/03/21 07:39:24;;;;;;;11.45;10.45;;;15.70;46.80;;;;;;5019332;28;20033;-57
2022/03/21 07:41:50;;;;;;;11.60;10.60;;;16.00;48.30;;;;;;5021339;28;20021;-57
2022/03/21 07:47:17;;;;;;;10.82;9.75;;;16.10;45.80;;;;;;5015287;28;20022;-58
2022/03/21 07:49:52;;;;;;;10.77;9.77;;;17.10;45.70;;;;;;5016070;28;20029;-58
2022/03/21 07:52:20;;;;;;;11.82;9.77;;;17.20;45.60;;;;;;5017445;28;20033;-57
2022/03/21 07:54:53;;;;;;;10.55;9.55;;;18.10;44.60;;;;;;5015346;28;20034;-57
2022/03/21 07:57:23;;;;;;;11.48;10.57;;;18.60;41.20;;;;;;5016597;28;20386;-58
2022/03/21 07:59:50;;;;;;;10.80;9.63;;;18.90;39.10;;;;;;5017991;28;20141;-58
2022/03/21 08:02:18;;;;;;;11.73;10.63;;;19.30;38.00;;;;;;5016208;28;20029;-57
2022/03/21 08:04:45;;;;;;;10.48;9.57;;;20.00;38.20;;;;;;5011676;28;20022;-57
2022/03/21 08:07:10;;;;;;;12.35;10.10;;;20.10;36.80;;;;;;5028964;28;20509;-57
2022/03/21 08:09:36;;;;;;;11.07;10.07;;;20.30;37.90;;;;;;5017690;28;20149;-57
2022/03/21 08:12:02;;;;;;;11.43;9.68;;;20.30;35.20;;;;;;5015337;28;20033;-56
2022/03/21 08:14:28;;;;;;;10.20;9.30;;;20.00;35.70;;;;;;5014467;28;20040;-58
2022/03/21 08:16:54;;;;;;;11.38;10.05;;;20.00;36.90;;;;;;5021011;28;20435;-57
2022/03/21 08:19:22;;;;;;;10.65;9.80;;;20.40;36.20;;;;;;5018526;28;20437;-57
2022/03/21 08:21:47;;;;;;;10.75;9.85;;;20.10;34.60;;;;;;5017228;28;20477;-59
2022/03/21 08:24:13;;;;;;;10.75;9.75;;;20.20;35.10;;;;;;5019593;28;20083;-58
2022/03/21 08:26:40;;;;;;;10.40;9.52;;;20.60;35.50;;;;;;5016146;28;20026;-58
2022/03/21 08:29:08;;;;;;;11.02;10.02;;;21.00;34.70;;;;;;5017203;28;20730;-58
2022/03/21 08:31:33;;;;;;;9.50;8.73;;;21.40;34.00;;;;;;5016727;28;20104;-58
2022/03/21 08:33:59;;;;;;;9.00;8.30;;;21.30;33.90;;;;;;5019939;28;20034;-58
2022/03/21 08:36:25;;;;;;;9.55;8.80;;;21.50;33.90;;;;;;5035954;28;20486;-57
2022/03/21 08:38:50;;;;;;;10.63;9.70;;;21.30;33.60;;;;;;5016230;28;20026;-56
2022/03/21 08:41:16;;;;;;;9.73;8.90;;;21.10;33.50;;;;;;5015272;28;20065;-58
2022/03/21 08:43:42;;;;;;;9.60;8.70;;;21.80;32.10;;;;;;5019478;28;20179;-58
2022/03/21 08:46:08;;;;;;;10.15;9.35;;;21.90;32.50;;;;;;5013227;28;20645;-57
2022/03/21 08:51:19;;;;;;;8.82;8.13;;;22.40;31.70;;;;;;5016321;28;20452;-56
2022/03/21 08:53:44;;;;;;;10.40;9.50;;;22.90;31.20;;;;;;5017871;28;20025;-56
2022/03/21 08:56:10;;;;;;;9.10;8.32;;;23.40;31.60;;;;;;5015415;28;20030;-56
2022/03/21 08:58:36;;;;;;;9.25;8.45;;;23.50;30.20;;;;;;5018222;28;20489;-55
2022/03/21 09:01:01;;;;;;;11.10;8.35;;;23.20;29.80;;;;;;5016856;28;20026;-54
2022/03/21 09:03:27;;;;;;;9.45;8.68;;;23.70;29.60;;;;;;5018472;28;20041;-54
2022/03/21 09:05:53;;;;;;;9.75;9.05;;;24.10;29.90;;;;;;5017816;28;20386;-56
2022/03/21 09:08:18;;;;;;;10.38;9.50;;;23.90;29.50;;;;;;5017542;28;20034;-56
2022/03/21 09:10:44;;;;;;;8.55;7.88;;;23.80;29.80;;;;;;5020123;28;20044;-56
2022/03/21 09:13:10;;;;;;;9.35;8.63;;;23.20;29.20;;;;;;5020548;28;20030;-56
2022/03/21 09:15:35;;;;;;;8.65;7.95;;;23.50;29.50;;;;;;5020313;28;20422;-55
2022/03/21 09:18:02;;;;;;;9.45;8.75;;;23.60;29.30;;;;;;5016103;28;20079;-57
2022/03/21 09:20:28;;;;;;;8.68;7.97;;;22.80;29.60;;;;;;5018493;28;20026;-54
2022/03/21 09:22:53;;;;;;;10.05;9.25;;;22.90;30.10;;;;;;5019968;28;20045;-54
2022/03/21 09:25:19;;;;;;;9.38;8.63;;;22.50;29.80;;;;;;5016480;28;20033;-55
2022/03/21 09:27:45;;;;;;;9.95;8.98;;;22.60;30.00;;;;;;5034005;28;20389;-56
2022/03/21 09:30:11;;;;;;;9.48;8.75;;;22.60;30.70;;;;;;5014115;28;20032;-54
2022/03/21 09:32:37;;;;;;;9.98;9.05;;;21.10;30.10;;;;;;5017722;28;20029;-55
2022/03/21 09:35:05;;;;;;;9.88;9.07;;;20.90;33.80;;;;;;5028617;28;20045;-54
2022/03/21 09:37:32;;;;;;;10.00;9.20;;;20.90;31.60;;;;;;5020875;28;20056;-55
2022/03/21 09:39:58;;;;;;;9.63;8.85;;;21.70;31.60;;;;;;5020670;28;20110;-55
2022/03/21 09:42:24;;;;;;;10.98;9.88;;;20.10;31.60;;;;;;5016273;28;20481;-54
2022/03/21 09:44:52;;;;;;;10.85;9.45;;;19.70;31.80;;;;;;5018326;28;20096;-54
2022/03/21 09:50:09;;;;;;;12.20;8.95;;;20.80;32.20;;;;;;5020367;28;20037;-53
2022/03/21 09:52:35;;;;;;;9.40;8.60;;;21.70;30.90;;;;;;5015869;28;20064;-54
2022/03/21 09:55:02;;;;;;;10.15;9.15;;;22.00;31.50;;;;;;5020411;28;20497;-55
2022/03/21 09:57:28;;;;;;;10.73;9.82;;;22.00;29.80;;;;;;5018708;28;20037;-54
2022/03/21 09:59:58;;;;;;;10.05;9.25;;;21.60;29.90;;;;;;5031936;28;20029;-55
2022/03/21 10:02:26;;;;;;;9.77;8.95;;;21.30;32.10;;;;;;5016602;28;20038;-55
2022/03/21 10:04:53;;;;;;;9.25;8.43;;;21.60;32.20;;;;;;5016801;28;20021;-55
2022/03/21 10:07:26;;;;;;;9.57;8.80;;;22.00;32.50;;;;;;5017587;28;20032;-55
2022/03/21 10:10:18;;;;;;;10.05;9.07;;;21.90;31.00;;;;;;5017332;28;20037;-55
2022/03/21 10:12:44;;;;;;;9.93;9.02;;;21.60;30.50;;;;;;5015981;28;20030;-56
2022/03/21 10:15:11;;;;;;;9.68;8.88;;;21.10;31.20;;;;;;5016298;28;20065;-54
2022/03/21 10:17:37;;;;;;;9.07;8.20;;;21.00;31.50;;;;;;5016203;28;20025;-54
2022/03/21 10:20:04;;;;;;;8.85;8.13;;;20.60;32.10;;;;;;5017091;28;20046;-55
2022/03/21 10:22:33;;;;;;;9.63;8.73;;;20.50;32.50;;;;;;5016272;28;20042;-54
2022/03/21 10:25:08;;;;;;;9.70;8.23;;;20.40;33.10;;;;;;5016155;28;20030;-55
2022/03/21 10:27:37;;;;;;;11.70;8.90;;;20.10;32.40;;;;;;5016651;28;20449;-54
2022/03/21 10:30:08;;;;;;;8.60;7.90;;;20.10;33.80;;;;;;5020086;28;20603;-56
2022/03/21 10:32:59;;;;;;;8.77;8.07;;;19.80;32.80;;;;;;5017899;28;20046;-56
2022/03/21 10:35:26;;;;;;;;;;;20.20;34.00;;;;;;5014561;28;20111;-55
2022/03/21 10:38:03;;;;;;;8.85;8.13;;;20.40;33.00;;;;;;5016111;28;20176;-56
2022/03/21 10:40:42;;;;;;;9.80;8.02;;;19.40;32.60;;;;;;5020070;28;20370;-55
2022/03/21 10:43:10;;;;;;;9.48;8.57;;;19.10;34.10;;;;;;5016021;28;20387;-53
2022/03/21 10:45:43;;;;;;;9.52;8.63;;;18.80;34.60;;;;;;5016419;28;20494;-55
2022/03/21 10:48:35;;;;;;;9.25;8.52;;;19.00;34.80;;;;;;5016928;28;20519;-55
2022/03/21 10:51:02;;;;;;;9.27;8.48;;;19.20;34.40;;;;;;5016626;28;20041;-54
2022/03/21 10:53:39;;;;;;;8.43;7.72;;;19.30;36.10;;;;;;5016121;28;20042;-54
2022/03/21 10:56:08;;;;;;;8.90;8.00;;;19.00;34.30;;;;;;5014914;28;20112;-55
2022/03/21 10:58:38;;;;;;;8.43;7.63;;;18.70;35.20;;;;;;5016507;28;20385;-55
2022/03/21 11:01:19;;;;;;;9.23;8.32;;;19.10;37.10;;;;;;5016289;28;20030;-54
2022/03/21 11:03:49;;;;;;;9.63;8.60;;;19.50;34.80;;;;;;5016192;28;20036;-54
2022/03/21 11:06:15;;;;;;;9.88;8.90;;;19.20;34.40;;;;;;5018201;28;20531;-54
2022/03/21 11:08:41;;;;;;;8.43;7.72;;;19.00;35.70;;;;;;5014110;28;20049;-54
2022/03/21 11:11:09;;;;;;;11.82;7.97;;;18.80;35.50;;;;;;5015738;28;20042;-54
2022/03/21 11:13:37;;;;;;;9.40;8.60;;;19.10;36.20;;;;;;5016944;28;20707;-56
2022/03/21 11:16:03;;;;;;;8.80;8.10;;;19.30;34.80;;;;;;5018940;28;20056;-53
2022/03/21 11:18:29;;;;;;;8.45;7.75;;;19.40;35.20;;;;;;5015898;28;20026;-53
2022/03/21 11:20:59;;;;;;;8.60;7.82;;;18.40;33.70;;;;;;5013053;28;20433;-54
2022/03/21 11:23:25;;;;;;;8.65;7.93;;;18.20;35.40;;;;;;5018497;28;20053;-54
2022/03/21 11:26:01;;;;;;;8.27;7.43;;;18.50;35.40;;;;;;5016539;28;20022;-54
2022/03/21 11:29:06;;;;;;;7.82;7.13;;;18.30;32.80;;;;;;5018349;28;20757;-55
2022/03/21 11:31:57;;;;;;;8.32;7.45;;;17.80;34.90;;;;;;5016071;28;20037;-54
2022/03/21 11:34:38;;;;;;;7.75;7.15;;;17.30;33.40;;;;;;5021177;28;20072;-55
2022/03/21 11:37:04;;;;;;;8.50;7.78;;;17.50;37.30;;;;;;5018970;28;20034;-55
2022/03/21 11:39:30;;;;;;;8.07;7.28;;;17.10;35.60;;;;;;5018550;28;20508;-54
2022/03/21 11:42:09;;;;;;;8.45;7.57;;;17.10;35.10;;;;;;5016552;28;20022;-53
2022/03/21 11:44:35;;;;;;;8.50;7.53;;;17.10;36.00;;;;;;5010814;28;20042;-54
2022/03/21 11:47:22;;;;;;;7.35;6.65;;;16.90;34.50;;;;;;5012598;28;20029;-54
2022/03/21 11:49:48;;;;;;;9.02;8.18;;;16.90;35.40;;;;;;5016181;28;20041;-53
2022/03/21 11:52:14;;;;;;;8.30;7.55;;;16.70;34.00;;;;;;5017853;28;20037;-56
2022/03/21 11:54:40;;;;;;;10.10;9.20;;;17.10;36.30;;;;;;5034584;28;20046;-55
2022/03/21 11:57:10;;;;;;;9.20;8.40;;;17.20;36.00;;;;;;5023145;28;20029;-55
2022/03/21 11:59:35;;;;;;;9.25;8.40;;;17.50;39.20;;;;;;5020591;28;20068;-55
2022/03/21 12:02:10;;;;;;;9.95;9.05;;;17.20;37.10;;;;;;5018620;28;20061;-53
2022/03/21 12:04:39;;;;;;;12.80;8.70;;;17.00;37.20;;;;;;5016550;28;20033;-58
2022/03/21 12:07:14;;;;;;;9.13;8.23;;;16.70;37.40;;;;;;5014649;28;20568;-57
2022/03/21 12:09:40;;;;;;;10.18;9.25;;;16.60;38.60;;;;;;5019938;28;20056;-55
2022/03/21 12:12:07;;;;;;;8.63;7.82;;;16.10;38.00;;;;;;5019159;28;20021;-57
2022/03/21 12:14:43;;;;;;;10.02;9.13;;;16.30;39.40;;;;;;5022477;28;20065;-57
2022/03/21 12:17:12;;;;;;;8.48;7.72;;;16.60;38.70;;;;;;5018958;28;20045;-56
2022/03/21 12:19:54;;;;;;;8.50;7.70;;;17.60;38.80;;;;;;5021567;28;20037;-56
2022/03/21 12:22:36;;;;;;;10.85;9.02;;;18.20;38.60;;;;;;5023011;28;20389;-58
2022/03/21 12:25:06;;;;;;;10.00;8.50;;;17.80;34.70;;;;;;5030838;28;20488;-57
2022/03/21 12:27:35;;;;;;;9.63;8.63;;;17.40;35.80;;;;;;5018350;28;20057;-56
2022/03/21 12:30:35;;;;;;;9.40;8.50;;;17.20;36.70;;;;;;5018887;28;20395;-56
2022/03/21 12:33:09;;;;;;;8.98;8.18;;;16.90;37.30;;;;;;4999001;28;20114;-57
2022/03/21 12:35:38;;;;;;;9.38;8.48;;;16.60;35.70;;;;;;5018024;28;20113;-56
2022/03/21 12:38:10;;;;;;;10.10;8.27;;;16.90;38.70;;;;;;5019979;28;20026;-57
2022/03/21 12:41:00;;;;;;;9.23;8.20;;;16.80;36.20;;;;;;5017309;28;20058;-56
2022/03/21 12:43:33;;;;;;;8.18;7.38;;;16.70;35.90;;;;;;5018317;28;20390;-56
2022/03/21 12:46:20;;;;;;;10.27;9.23;;;17.00;38.10;;;;;;5017917;28;20053;-56
2022/03/21 12:48:48;;;;;;;9.32;8.50;;;17.40;36.40;;;;;;5016990;28;20473;-56
2022/03/21 12:51:30;;;;;;;9.40;8.38;;;17.50;35.40;;;;;;5018791;28;20041;-56
2022/03/21 12:53:58;;;;;;;;;;;18.00;36.10;;;;;;5018038;28;21507;-56
2022/03/21 12:56:26;;;;;;;8.57;7.80;;;17.90;34.00;;;;;;5014079;28;19918;-56
2022/03/21 12:59:04;;;;;;;8.18;7.47;;;17.30;36.60;;;;;;5018248;28;20032;-57
2022/03/21 13:01:31;;;;;;;8.95;8.23;;;17.00;37.50;;;;;;5015048;28;20091;-56
2022/03/21 13:10:32;;;;;;;9.85;8.90;;;16.80;37.00;;;;;;5017386;28;20041;-56
2022/03/21 13:12:30;;;;;;;9.25;8.25;;;17.70;36.50;;;;;;5018958;28;20044;-57
2022/03/21 13:15:11;;;;;;;7.97;7.28;;;18.40;35.80;;;;;;5019978;28;20025;-57